Grey Fox — V7LD4 — position and weather

sailwx.info

Track history (hours):
 
Tides and Currents Weather Stations Pressure Air Temp Water Temp Dewpoint Dewpoint Depression Visibility Wind Speed Wind Dir Waves Ship Positions

Grey Fox

Last reported at 2017-Sep-20 23:00 UTC. Time now 2017-Sep-24 03:40 UTC.
Position N 24°03' W 080°51'.

Length 192.4 m; beam 26.7 m; draft 11.4 m.

Type: Cargo ship. MMSI: 538090261.

Date/timePositionNaut miles runAvg speedWind from/ knotsBaromVisibWave heightAir tempDewpointWater temp
2017-Sep-20 23:00N 24°03' W 080°51'813.1
2017-Sep-20 22:24N 24°07' W 080°43'4613.3
2017-Sep-20 18:58N 24°31' W 080°01'613.7
2017-Sep-20 18:30N 24°34' W 079°55'5012.8
2017-Sep-20 14:36N 25°21' W 079°36'813.6
2017-Sep-20 14:00N 25°29' W 079°35'713.6
2017-Sep-20 13:30N 25°36' W 079°34'713.5
2017-Sep-20 13:00N 25°43' W 079°33'713.3
2017-Sep-20 12:30N 25°49' W 079°32'713.1
2017-Sep-20 12:00N 25°56' W 079°32'612.9
2017-Sep-20 11:30N 26°02' W 079°31'612.9
2017-Sep-20 11:00N 26°09' W 079°30'713.0
2017-Sep-20 10:30N 26°15' W 079°29'713.3
2017-Sep-20 10:00N 26°21' W 079°27'27911.2
2017-Sep-19 09:08N 31°00' W 079°41'311.2
2017-Sep-19 08:51N 31°03' W 079°39'511.2
2017-Sep-19 08:24N 31°08' W 079°37'1211.1
2017-Sep-19 07:20N 31°19' W 079°35'712.2
2017-Sep-19 06:44N 31°27' W 079°36'412.8
2017-Sep-19 06:26N 31°31' W 079°37'613.7
2017-Sep-19 05:59N 31°37' W 079°37'714.4
2017-Sep-19 05:30N 31°44' W 079°38'714.3
2017-Sep-19 05:00N 31°51' W 079°38'914.2
2017-Sep-19 04:24N 31°59' W 079°38'614.3
2017-Sep-19 04:01N 32°05' W 079°38'714.2
2017-Sep-19 03:30N 32°12' W 079°39'714.0
2017-Sep-19 03:00N 32°19' W 079°39'  
2017-Sep-16 14:46N 33°32' W 076°50'714.8
2017-Sep-16 14:19N 33°34' W 076°43'414.4
2017-Sep-16 14:00N 33°36' W 076°38'813.6
2017-Sep-16 13:24N 33°39' W 076°28'512.4
2017-Sep-16 13:00N 33°40' W 076°23'611.5
2017-Sep-16 12:30N 33°41' W 076°16'811.9
2017-Sep-16 11:48N 33°41' W 076°06'  
Track history (hours):
 
Tides and Currents Weather Stations Pressure Air Temp Water Temp Dewpoint Dewpoint Depression Visibility Wind Speed Wind Dir Waves Ship Positions

Grey Fox

Last reported at 2017-Sep-20 23:00 UTC. Time now 2017-Sep-24 03:40 UTC.
Position N 24°03' W 080°51'.

Length 192.4 m; beam 26.7 m; draft 11.4 m.

Type: Cargo ship. MMSI: 538090261.

Date/timePositionNaut miles runAvg speedWind from/ knotsBaromVisibWave heightAir tempDewpointWater temp
2017-Sep-20 23:00N 24°03' W 080°51'813.1
2017-Sep-20 22:24N 24°07' W 080°43'4613.3
2017-Sep-20 18:58N 24°31' W 080°01'613.7
2017-Sep-20 18:30N 24°34' W 079°55'5012.8
2017-Sep-20 14:36N 25°21' W 079°36'813.6
2017-Sep-20 14:00N 25°29' W 079°35'713.6
2017-Sep-20 13:30N 25°36' W 079°34'713.5
2017-Sep-20 13:00N 25°43' W 079°33'713.3
2017-Sep-20 12:30N 25°49' W 079°32'713.1
2017-Sep-20 12:00N 25°56' W 079°32'612.9
2017-Sep-20 11:30N 26°02' W 079°31'612.9
2017-Sep-20 11:00N 26°09' W 079°30'713.0
2017-Sep-20 10:30N 26°15' W 079°29'713.3
2017-Sep-20 10:00N 26°21' W 079°27'27911.2
2017-Sep-19 09:08N 31°00' W 079°41'311.2
2017-Sep-19 08:51N 31°03' W 079°39'511.2
2017-Sep-19 08:24N 31°08' W 079°37'1211.1
2017-Sep-19 07:20N 31°19' W 079°35'712.2
2017-Sep-19 06:44N 31°27' W 079°36'412.8
2017-Sep-19 06:26N 31°31' W 079°37'613.7
2017-Sep-19 05:59N 31°37' W 079°37'714.4
2017-Sep-19 05:30N 31°44' W 079°38'714.3
2017-Sep-19 05:00N 31°51' W 079°38'914.2
2017-Sep-19 04:24N 31°59' W 079°38'614.3
2017-Sep-19 04:01N 32°05' W 079°38'714.2
2017-Sep-19 03:30N 32°12' W 079°39'714.0
2017-Sep-19 03:00N 32°19' W 079°39'  
2017-Sep-16 14:46N 33°32' W 076°50'714.8
2017-Sep-16 14:19N 33°34' W 076°43'414.4
2017-Sep-16 14:00N 33°36' W 076°38'813.6
2017-Sep-16 13:24N 33°39' W 076°28'512.4
2017-Sep-16 13:00N 33°40' W 076°23'611.5
2017-Sep-16 12:30N 33°41' W 076°16'811.9
2017-Sep-16 11:48N 33°41' W 076°06'  

Dump ship's entire track history